sensor_id;sensor_type;location;lat;lon;timestamp;P1;durP1;ratioP1;P2;durP2;ratioP2
6282;SDS011;3174;53.486;9.568;2023-02-01T00:00:14;12.93;;;3.03;;
6282;SDS011;3174;53.486;9.568;2023-02-01T00:02:42;11.37;;;3.00;;
6282;SDS011;3174;53.486;9.568;2023-02-01T00:05:13;12.80;;;3.00;;
6282;SDS011;3174;53.486;9.568;2023-02-01T00:07:41;12.93;;;3.13;;
6282;SDS011;3174;53.486;9.568;2023-02-01T00:10:09;14.17;;;2.57;;
6282;SDS011;3174;53.486;9.568;2023-02-01T00:12:38;16.90;;;3.20;;
6282;SDS011;3174;53.486;9.568;2023-02-01T00:15:06;11.23;;;3.00;;
6282;SDS011;3174;53.486;9.568;2023-02-01T00:17:36;24.83;;;3.47;;
6282;SDS011;3174;53.486;9.568;2023-02-01T00:20:05;18.10;;;3.53;;
6282;SDS011;3174;53.486;9.568;2023-02-01T00:22:34;12.07;;;2.67;;
6282;SDS011;3174;53.486;9.568;2023-02-01T00:25:02;15.50;;;3.43;;
6282;SDS011;3174;53.486;9.568;2023-02-01T00:27:30;16.23;;;2.67;;
6282;SDS011;3174;53.486;9.568;2023-02-01T00:29:58;16.80;;;3.23;;
6282;SDS011;3174;53.486;9.568;2023-02-01T00:32:26;14.90;;;2.93;;
6282;SDS011;3174;53.486;9.568;2023-02-01T00:34:55;14.67;;;3.17;;
6282;SDS011;3174;53.486;9.568;2023-02-01T00:37:23;18.67;;;4.37;;
6282;SDS011;3174;53.486;9.568;2023-02-01T00:39:51;13.33;;;3.03;;
6282;SDS011;3174;53.486;9.568;2023-02-01T00:42:21;14.97;;;2.90;;
6282;SDS011;3174;53.486;9.568;2023-02-01T00:44:49;17.73;;;2.57;;
6282;SDS011;3174;53.486;9.568;2023-02-01T00:47:16;15.80;;;2.93;;
6282;SDS011;3174;53.486;9.568;2023-02-01T00:49:46;11.00;;;2.80;;
6282;SDS011;3174;53.486;9.568;2023-02-01T00:52:15;16.93;;;3.17;;
6282;SDS011;3174;53.486;9.568;2023-02-01T00:54:43;18.50;;;3.60;;
6282;SDS011;3174;53.486;9.568;2023-02-01T00:57:11;19.83;;;2.70;;
6282;SDS011;3174;53.486;9.568;2023-02-01T00:59:39;16.73;;;3.60;;
6282;SDS011;3174;53.486;9.568;2023-02-01T01:02:07;16.70;;;3.30;;
6282;SDS011;3174;53.486;9.568;2023-02-01T01:04:35;14.70;;;3.40;;
6282;SDS011;3174;53.486;9.568;2023-02-01T01:07:03;17.47;;;3.10;;
6282;SDS011;3174;53.486;9.568;2023-02-01T01:09:33;17.17;;;3.23;;
6282;SDS011;3174;53.486;9.568;2023-02-01T01:12:01;19.17;;;3.40;;
6282;SDS011;3174;53.486;9.568;2023-02-01T01:14:29;22.67;;;3.43;;
6282;SDS011;3174;53.486;9.568;2023-02-01T01:16:57;17.03;;;3.33;;
6282;SDS011;3174;53.486;9.568;2023-02-01T01:19:25;10.63;;;2.43;;
6282;SDS011;3174;53.486;9.568;2023-02-01T01:21:53;21.10;;;4.33;;
6282;SDS011;3174;53.486;9.568;2023-02-01T01:24:21;16.00;;;2.80;;
6282;SDS011;3174;53.486;9.568;2023-02-01T01:26:50;16.37;;;3.50;;
6282;SDS011;3174;53.486;9.568;2023-02-01T01:29:18;18.17;;;3.47;;
6282;SDS011;3174;53.486;9.568;2023-02-01T01:31:46;19.27;;;3.07;;
6282;SDS011;3174;53.486;9.568;2023-02-01T01:34:14;18.77;;;3.37;;
6282;SDS011;3174;53.486;9.568;2023-02-01T01:36:42;20.20;;;3.60;;
6282;SDS011;3174;53.486;9.568;2023-02-01T01:39:10;14.80;;;3.57;;
6282;SDS011;3174;53.486;9.568;2023-02-01T01:41:38;13.83;;;3.47;;
6282;SDS011;3174;53.486;9.568;2023-02-01T01:47:08;18.47;;;3.00;;
6282;SDS011;3174;53.486;9.568;2023-02-01T01:49:37;13.00;;;3.13;;
6282;SDS011;3174;53.486;9.568;2023-02-01T01:52:05;21.23;;;4.40;;
6282;SDS011;3174;53.486;9.568;2023-02-01T01:54:34;14.20;;;2.87;;
6282;SDS011;3174;53.486;9.568;2023-02-01T01:57:04;11.43;;;2.97;;
6282;SDS011;3174;53.486;9.568;2023-02-01T01:59:34;23.60;;;4.47;;
6282;SDS011;3174;53.486;9.568;2023-02-01T02:02:03;14.50;;;3.60;;
6282;SDS011;3174;53.486;9.568;2023-02-01T02:04:33;20.67;;;3.53;;
6282;SDS011;3174;53.486;9.568;2023-02-01T02:07:02;13.80;;;2.40;;
6282;SDS011;3174;53.486;9.568;2023-02-01T02:09:32;10.20;;;3.30;;
6282;SDS011;3174;53.486;9.568;2023-02-01T02:12:00;27.13;;;4.10;;
6282;SDS011;3174;53.486;9.568;2023-02-01T02:14:28;11.50;;;2.47;;
6282;SDS011;3174;53.486;9.568;2023-02-01T02:17:03;12.80;;;3.27;;
6282;SDS011;3174;53.486;9.568;2023-02-01T02:29:02;13.03;;;2.57;;
6282;SDS011;3174;53.486;9.568;2023-02-01T02:34:53;17.53;;;3.30;;
6282;SDS011;3174;53.486;9.568;2023-02-01T02:37:25;21.70;;;3.63;;
6282;SDS011;3174;53.486;9.568;2023-02-01T02:40:03;12.73;;;2.70;;
6282;SDS011;3174;53.486;9.568;2023-02-01T02:42:35;16.33;;;3.10;;
6282;SDS011;3174;53.486;9.568;2023-02-01T02:45:37;16.30;;;2.90;;
6282;SDS011;3174;53.486;9.568;2023-02-01T02:48:25;18.60;;;3.27;;
6282;SDS011;3174;53.486;9.568;2023-02-01T02:50:58;12.90;;;2.83;;
6282;SDS011;3174;53.486;9.568;2023-02-01T02:53:47;13.33;;;2.87;;
6282;SDS011;3174;53.486;9.568;2023-02-01T02:56:36;16.83;;;3.07;;
6282;SDS011;3174;53.486;9.568;2023-02-01T02:59:23;12.40;;;2.50;;
6282;SDS011;3174;53.486;9.568;2023-02-01T03:02:10;15.60;;;2.93;;
6282;SDS011;3174;53.486;9.568;2023-02-01T03:04:55;14.17;;;2.83;;
6282;SDS011;3174;53.486;9.568;2023-02-01T03:10:31;16.57;;;3.40;;
6282;SDS011;3174;53.486;9.568;2023-02-01T03:13:03;11.07;;;2.80;;
6282;SDS011;3174;53.486;9.568;2023-02-01T03:15:34;12.73;;;3.10;;
6282;SDS011;3174;53.486;9.568;2023-02-01T03:18:05;16.20;;;2.67;;
6282;SDS011;3174;53.486;9.568;2023-02-01T03:20:38;12.07;;;2.00;;
6282;SDS011;3174;53.486;9.568;2023-02-01T03:23:09;15.13;;;2.50;;
6282;SDS011;3174;53.486;9.568;2023-02-01T03:25:38;6.93;;;1.83;;
6282;SDS011;3174;53.486;9.568;2023-02-01T03:28:07;4.63;;;1.40;;
6282;SDS011;3174;53.486;9.568;2023-02-01T03:30:37;6.50;;;1.40;;
6282;SDS011;3174;53.486;9.568;2023-02-01T03:33:09;4.87;;;1.60;;
6282;SDS011;3174;53.486;9.568;2023-02-01T03:35:42;6.17;;;2.10;;
6282;SDS011;3174;53.486;9.568;2023-02-01T03:38:16;3.73;;;1.40;;
6282;SDS011;3174;53.486;9.568;2023-02-01T03:40:50;8.53;;;1.73;;
6282;SDS011;3174;53.486;9.568;2023-02-01T03:43:20;5.57;;;1.47;;
6282;SDS011;3174;53.486;9.568;2023-02-01T03:45:49;5.57;;;1.47;;
6282;SDS011;3174;53.486;9.568;2023-02-01T03:48:19;5.40;;;1.23;;
6282;SDS011;3174;53.486;9.568;2023-02-01T03:50:49;9.80;;;1.40;;
6282;SDS011;3174;53.486;9.568;2023-02-01T03:53:22;10.03;;;1.50;;
6282;SDS011;3174;53.486;9.568;2023-02-01T03:55:50;15.00;;;2.20;;
6282;SDS011;3174;53.486;9.568;2023-02-01T03:58:20;5.47;;;1.43;;
6282;SDS011;3174;53.486;9.568;2023-02-01T04:00:50;7.53;;;2.03;;
6282;SDS011;3174;53.486;9.568;2023-02-01T04:03:19;8.13;;;2.63;;
6282;SDS011;3174;53.486;9.568;2023-02-01T04:05:49;7.13;;;1.70;;
6282;SDS011;3174;53.486;9.568;2023-02-01T04:08:17;8.63;;;1.87;;
6282;SDS011;3174;53.486;9.568;2023-02-01T04:10:46;5.93;;;1.57;;
6282;SDS011;3174;53.486;9.568;2023-02-01T04:13:14;9.40;;;2.00;;
6282;SDS011;3174;53.486;9.568;2023-02-01T04:15:42;4.80;;;1.77;;
6282;SDS011;3174;53.486;9.568;2023-02-01T04:18:11;5.40;;;1.70;;
6282;SDS011;3174;53.486;9.568;2023-02-01T04:20:39;8.33;;;1.67;;
6282;SDS011;3174;53.486;9.568;2023-02-01T04:23:07;13.57;;;1.67;;
6282;SDS011;3174;53.486;9.568;2023-02-01T04:25:35;6.57;;;1.70;;
6282;SDS011;3174;53.486;9.568;2023-02-01T04:28:04;1.67;;;1.03;;
6282;SDS011;3174;53.486;9.568;2023-02-01T04:30:33;9.03;;;1.90;;
6282;SDS011;3174;53.486;9.568;2023-02-01T04:33:01;11.70;;;2.10;;
6282;SDS011;3174;53.486;9.568;2023-02-01T04:35:32;5.93;;;1.63;;
6282;SDS011;3174;53.486;9.568;2023-02-01T04:38:01;4.03;;;1.47;;
6282;SDS011;3174;53.486;9.568;2023-02-01T04:40:28;4.50;;;1.20;;
6282;SDS011;3174;53.486;9.568;2023-02-01T04:42:56;3.67;;;1.03;;
6282;SDS011;3174;53.486;9.568;2023-02-01T04:45:26;4.17;;;1.60;;
6282;SDS011;3174;53.486;9.568;2023-02-01T04:47:54;7.17;;;2.10;;
6282;SDS011;3174;53.486;9.568;2023-02-01T04:50:22;3.40;;;1.50;;
6282;SDS011;3174;53.486;9.568;2023-02-01T04:52:50;4.57;;;1.20;;
6282;SDS011;3174;53.486;9.568;2023-02-01T04:55:18;1.77;;;0.90;;
6282;SDS011;3174;53.486;9.568;2023-02-01T04:57:46;2.87;;;1.17;;
6282;SDS011;3174;53.486;9.568;2023-02-01T05:00:15;3.40;;;0.90;;
6282;SDS011;3174;53.486;9.568;2023-02-01T05:02:44;2.40;;;1.03;;
6282;SDS011;3174;53.486;9.568;2023-02-01T05:05:12;1.70;;;0.50;;
6282;SDS011;3174;53.486;9.568;2023-02-01T05:07:40;2.27;;;0.77;;
6282;SDS011;3174;53.486;9.568;2023-02-01T05:10:09;3.73;;;1.00;;
6282;SDS011;3174;53.486;9.568;2023-02-01T05:12:37;0.77;;;0.60;;
6282;SDS011;3174;53.486;9.568;2023-02-01T05:15:22;1.90;;;0.73;;
6282;SDS011;3174;53.486;9.568;2023-02-01T05:17:52;3.30;;;0.70;;
6282;SDS011;3174;53.486;9.568;2023-02-01T05:20:20;0.50;;;0.30;;
6282;SDS011;3174;53.486;9.568;2023-02-01T05:22:48;3.07;;;0.60;;
6282;SDS011;3174;53.486;9.568;2023-02-01T05:25:16;2.53;;;0.90;;
6282;SDS011;3174;53.486;9.568;2023-02-01T05:27:45;1.37;;;0.80;;
6282;SDS011;3174;53.486;9.568;2023-02-01T05:30:13;1.80;;;0.60;;
6282;SDS011;3174;53.486;9.568;2023-02-01T05:32:41;1.90;;;0.70;;
6282;SDS011;3174;53.486;9.568;2023-02-01T05:35:10;2.70;;;0.90;;
6282;SDS011;3174;53.486;9.568;2023-02-01T05:37:38;1.90;;;0.70;;
6282;SDS011;3174;53.486;9.568;2023-02-01T05:40:07;3.13;;;0.83;;
6282;SDS011;3174;53.486;9.568;2023-02-01T05:42:35;1.17;;;0.70;;
6282;SDS011;3174;53.486;9.568;2023-02-01T05:45:04;3.93;;;0.83;;
6282;SDS011;3174;53.486;9.568;2023-02-01T05:47:33;1.37;;;0.43;;
6282;SDS011;3174;53.486;9.568;2023-02-01T05:50:02;6.00;;;1.37;;
6282;SDS011;3174;53.486;9.568;2023-02-01T05:52:32;4.90;;;1.07;;
6282;SDS011;3174;53.486;9.568;2023-02-01T05:55:00;2.27;;;0.80;;
6282;SDS011;3174;53.486;9.568;2023-02-01T05:57:28;2.90;;;1.10;;
6282;SDS011;3174;53.486;9.568;2023-02-01T05:59:56;2.80;;;0.87;;
6282;SDS011;3174;53.486;9.568;2023-02-01T06:02:25;2.87;;;1.10;;
6282;SDS011;3174;53.486;9.568;2023-02-01T06:04:53;3.37;;;0.70;;
6282;SDS011;3174;53.486;9.568;2023-02-01T06:07:21;1.73;;;1.00;;
6282;SDS011;3174;53.486;9.568;2023-02-01T06:09:51;4.20;;;1.13;;
6282;SDS011;3174;53.486;9.568;2023-02-01T06:12:19;2.20;;;0.97;;
6282;SDS011;3174;53.486;9.568;2023-02-01T06:14:47;7.80;;;1.10;;
6282;SDS011;3174;53.486;9.568;2023-02-01T06:17:15;4.67;;;1.23;;
6282;SDS011;3174;53.486;9.568;2023-02-01T06:19:42;3.07;;;0.87;;
6282;SDS011;3174;53.486;9.568;2023-02-01T06:22:11;3.93;;;1.30;;
6282;SDS011;3174;53.486;9.568;2023-02-01T06:24:39;9.57;;;1.90;;
6282;SDS011;3174;53.486;9.568;2023-02-01T06:27:09;2.53;;;0.87;;
6282;SDS011;3174;53.486;9.568;2023-02-01T06:29:37;3.20;;;1.63;;
6282;SDS011;3174;53.486;9.568;2023-02-01T06:32:05;4.80;;;1.37;;
6282;SDS011;3174;53.486;9.568;2023-02-01T06:34:34;5.40;;;1.27;;
6282;SDS011;3174;53.486;9.568;2023-02-01T06:37:03;10.50;;;1.90;;
6282;SDS011;3174;53.486;9.568;2023-02-01T06:39:31;2.67;;;1.03;;
6282;SDS011;3174;53.486;9.568;2023-02-01T06:41:59;6.67;;;1.87;;
6282;SDS011;3174;53.486;9.568;2023-02-01T06:44:28;4.17;;;1.47;;
6282;SDS011;3174;53.486;9.568;2023-02-01T06:46:56;7.80;;;2.00;;
6282;SDS011;3174;53.486;9.568;2023-02-01T06:49:24;9.70;;;1.60;;
6282;SDS011;3174;53.486;9.568;2023-02-01T06:51:52;7.93;;;2.37;;
6282;SDS011;3174;53.486;9.568;2023-02-01T06:54:20;9.10;;;1.87;;
6282;SDS011;3174;53.486;9.568;2023-02-01T06:56:48;15.77;;;3.00;;
6282;SDS011;3174;53.486;9.568;2023-02-01T06:59:16;11.30;;;2.07;;
6282;SDS011;3174;53.486;9.568;2023-02-01T07:01:45;7.87;;;2.27;;
6282;SDS011;3174;53.486;9.568;2023-02-01T07:04:13;11.33;;;1.67;;
6282;SDS011;3174;53.486;9.568;2023-02-01T07:06:41;11.10;;;2.17;;
6282;SDS011;3174;53.486;9.568;2023-02-01T07:09:09;7.70;;;2.30;;
6282;SDS011;3174;53.486;9.568;2023-02-01T07:11:38;11.43;;;4.00;;
6282;SDS011;3174;53.486;9.568;2023-02-01T07:14:09;12.27;;;3.57;;
6282;SDS011;3174;53.486;9.568;2023-02-01T07:16:37;17.83;;;6.07;;
6282;SDS011;3174;53.486;9.568;2023-02-01T07:19:07;17.20;;;6.23;;
6282;SDS011;3174;53.486;9.568;2023-02-01T07:21:35;27.13;;;7.93;;
6282;SDS011;3174;53.486;9.568;2023-02-01T07:24:03;13.80;;;4.20;;
6282;SDS011;3174;53.486;9.568;2023-02-01T07:26:32;18.67;;;5.60;;
6282;SDS011;3174;53.486;9.568;2023-02-01T07:29:00;13.00;;;2.87;;
6282;SDS011;3174;53.486;9.568;2023-02-01T07:31:28;9.77;;;3.40;;
6282;SDS011;3174;53.486;9.568;2023-02-01T07:33:56;6.67;;;2.93;;
6282;SDS011;3174;53.486;9.568;2023-02-01T07:36:25;11.27;;;3.27;;
6282;SDS011;3174;53.486;9.568;2023-02-01T07:38:53;12.57;;;2.93;;
6282;SDS011;3174;53.486;9.568;2023-02-01T07:41:22;17.53;;;3.53;;
6282;SDS011;3174;53.486;9.568;2023-02-01T07:43:51;21.53;;;4.00;;
6282;SDS011;3174;53.486;9.568;2023-02-01T07:46:20;21.73;;;7.37;;
6282;SDS011;3174;53.486;9.568;2023-02-01T07:48:48;15.73;;;3.20;;
6282;SDS011;3174;53.486;9.568;2023-02-01T07:51:16;12.60;;;3.60;;
6282;SDS011;3174;53.486;9.568;2023-02-01T07:53:46;15.80;;;3.30;;
6282;SDS011;3174;53.486;9.568;2023-02-01T07:56:14;12.00;;;3.07;;
6282;SDS011;3174;53.486;9.568;2023-02-01T07:58:46;12.30;;;3.03;;
6282;SDS011;3174;53.486;9.568;2023-02-01T08:01:15;9.43;;;2.53;;
6282;SDS011;3174;53.486;9.568;2023-02-01T08:03:50;11.90;;;3.17;;
6282;SDS011;3174;53.486;9.568;2023-02-01T08:06:19;14.63;;;2.37;;
6282;SDS011;3174;53.486;9.568;2023-02-01T08:08:49;16.87;;;3.37;;
6282;SDS011;3174;53.486;9.568;2023-02-01T08:11:18;8.37;;;3.30;;
6282;SDS011;3174;53.486;9.568;2023-02-01T08:13:48;14.80;;;3.13;;
6282;SDS011;3174;53.486;9.568;2023-02-01T08:16:16;15.53;;;2.80;;
6282;SDS011;3174;53.486;9.568;2023-02-01T08:18:45;23.97;;;3.20;;
6282;SDS011;3174;53.486;9.568;2023-02-01T08:21:14;17.37;;;3.50;;
6282;SDS011;3174;53.486;9.568;2023-02-01T08:23:43;10.83;;;3.20;;
6282;SDS011;3174;53.486;9.568;2023-02-01T08:26:13;12.77;;;2.80;;
6282;SDS011;3174;53.486;9.568;2023-02-01T08:28:43;8.37;;;3.37;;
6282;SDS011;3174;53.486;9.568;2023-02-01T08:31:15;12.47;;;3.07;;
6282;SDS011;3174;53.486;9.568;2023-02-01T08:33:44;12.67;;;2.30;;
6282;SDS011;3174;53.486;9.568;2023-02-01T08:36:15;8.93;;;2.53;;
6282;SDS011;3174;53.486;9.568;2023-02-01T08:38:44;14.77;;;3.97;;
6282;SDS011;3174;53.486;9.568;2023-02-01T08:41:13;9.30;;;2.83;;
6282;SDS011;3174;53.486;9.568;2023-02-01T08:43:43;16.43;;;3.03;;
6282;SDS011;3174;53.486;9.568;2023-02-01T08:46:11;14.50;;;2.73;;
6282;SDS011;3174;53.486;9.568;2023-02-01T08:48:40;15.00;;;3.27;;
6282;SDS011;3174;53.486;9.568;2023-02-01T08:51:08;11.37;;;3.27;;
6282;SDS011;3174;53.486;9.568;2023-02-01T08:53:37;12.27;;;3.27;;
6282;SDS011;3174;53.486;9.568;2023-02-01T08:56:07;17.83;;;2.77;;
6282;SDS011;3174;53.486;9.568;2023-02-01T08:58:37;14.93;;;3.87;;
6282;SDS011;3174;53.486;9.568;2023-02-01T09:01:06;11.57;;;2.53;;
6282;SDS011;3174;53.486;9.568;2023-02-01T09:03:35;16.50;;;3.80;;
6282;SDS011;3174;53.486;9.568;2023-02-01T09:06:03;14.60;;;2.70;;
6282;SDS011;3174;53.486;9.568;2023-02-01T09:08:32;14.13;;;3.53;;
6282;SDS011;3174;53.486;9.568;2023-02-01T09:11:01;17.10;;;3.90;;
6282;SDS011;3174;53.486;9.568;2023-02-01T09:13:29;13.00;;;2.67;;
6282;SDS011;3174;53.486;9.568;2023-02-01T09:15:59;11.77;;;2.60;;
6282;SDS011;3174;53.486;9.568;2023-02-01T09:18:27;9.60;;;2.40;;
6282;SDS011;3174;53.486;9.568;2023-02-01T09:20:55;13.17;;;3.23;;
6282;SDS011;3174;53.486;9.568;2023-02-01T09:23:23;14.00;;;2.70;;
6282;SDS011;3174;53.486;9.568;2023-02-01T09:25:51;10.70;;;2.53;;
6282;SDS011;3174;53.486;9.568;2023-02-01T09:28:19;14.17;;;3.13;;
6282;SDS011;3174;53.486;9.568;2023-02-01T09:30:47;8.97;;;2.67;;
6282;SDS011;3174;53.486;9.568;2023-02-01T09:33:16;15.63;;;3.10;;
6282;SDS011;3174;53.486;9.568;2023-02-01T09:35:44;7.67;;;2.80;;
6282;SDS011;3174;53.486;9.568;2023-02-01T09:38:12;12.17;;;4.80;;
6282;SDS011;3174;53.486;9.568;2023-02-01T09:40:42;10.83;;;2.77;;
6282;SDS011;3174;53.486;9.568;2023-02-01T09:43:18;15.43;;;3.43;;
6282;SDS011;3174;53.486;9.568;2023-02-01T09:45:55;10.53;;;3.97;;
6282;SDS011;3174;53.486;9.568;2023-02-01T09:48:32;16.93;;;2.97;;
6282;SDS011;3174;53.486;9.568;2023-02-01T09:51:02;14.77;;;3.13;;
6282;SDS011;3174;53.486;9.568;2023-02-01T09:53:33;14.07;;;3.57;;
6282;SDS011;3174;53.486;9.568;2023-02-01T09:56:02;12.50;;;2.63;;
6282;SDS011;3174;53.486;9.568;2023-02-01T09:58:33;11.47;;;2.90;;
6282;SDS011;3174;53.486;9.568;2023-02-01T10:01:04;10.50;;;2.67;;
6282;SDS011;3174;53.486;9.568;2023-02-01T10:03:37;13.00;;;3.03;;
6282;SDS011;3174;53.486;9.568;2023-02-01T10:06:09;9.60;;;2.67;;
6282;SDS011;3174;53.486;9.568;2023-02-01T10:11:46;23.77;;;3.07;;
6282;SDS011;3174;53.486;9.568;2023-02-01T10:17:19;13.67;;;3.10;;
6282;SDS011;3174;53.486;9.568;2023-02-01T10:20:00;9.77;;;2.53;;
6282;SDS011;3174;53.486;9.568;2023-02-01T10:22:37;6.77;;;1.97;;
6282;SDS011;3174;53.486;9.568;2023-02-01T10:25:28;11.83;;;2.90;;
6282;SDS011;3174;53.486;9.568;2023-02-01T10:28:00;10.33;;;2.63;;
6282;SDS011;3174;53.486;9.568;2023-02-01T10:30:31;10.30;;;2.90;;
6282;SDS011;3174;53.486;9.568;2023-02-01T10:33:07;10.80;;;3.07;;
6282;SDS011;3174;53.486;9.568;2023-02-01T10:35:41;13.37;;;2.50;;
6282;SDS011;3174;53.486;9.568;2023-02-01T10:38:21;10.57;;;2.97;;
6282;SDS011;3174;53.486;9.568;2023-02-01T10:40:52;9.10;;;2.50;;
6282;SDS011;3174;53.486;9.568;2023-02-01T10:43:21;12.23;;;2.50;;
6282;SDS011;3174;53.486;9.568;2023-02-01T10:45:49;16.73;;;3.47;;
6282;SDS011;3174;53.486;9.568;2023-02-01T10:48:17;17.83;;;3.10;;
6282;SDS011;3174;53.486;9.568;2023-02-01T10:50:48;11.63;;;3.90;;
6282;SDS011;3174;53.486;9.568;2023-02-01T10:53:21;12.70;;;2.97;;
6282;SDS011;3174;53.486;9.568;2023-02-01T10:55:53;16.70;;;3.30;;
6282;SDS011;3174;53.486;9.568;2023-02-01T10:58:25;14.53;;;4.63;;
6282;SDS011;3174;53.486;9.568;2023-02-01T11:00:55;10.20;;;3.13;;
6282;SDS011;3174;53.486;9.568;2023-02-01T11:03:31;14.40;;;2.77;;
6282;SDS011;3174;53.486;9.568;2023-02-01T11:06:11;14.50;;;3.13;;
6282;SDS011;3174;53.486;9.568;2023-02-01T11:08:45;10.67;;;3.53;;
6282;SDS011;3174;53.486;9.568;2023-02-01T11:11:14;10.07;;;2.77;;
6282;SDS011;3174;53.486;9.568;2023-02-01T11:13:45;13.33;;;4.10;;
6282;SDS011;3174;53.486;9.568;2023-02-01T11:16:20;10.67;;;3.13;;
6282;SDS011;3174;53.486;9.568;2023-02-01T11:18:53;19.97;;;4.80;;
6282;SDS011;3174;53.486;9.568;2023-02-01T11:21:24;22.37;;;5.83;;
6282;SDS011;3174;53.486;9.568;2023-02-01T11:23:52;19.10;;;6.60;;
6282;SDS011;3174;53.486;9.568;2023-02-01T11:26:21;21.73;;;5.97;;
6282;SDS011;3174;53.486;9.568;2023-02-01T11:28:52;9.00;;;2.90;;
6282;SDS011;3174;53.486;9.568;2023-02-01T11:31:22;13.57;;;4.73;;
6282;SDS011;3174;53.486;9.568;2023-02-01T11:33:50;10.63;;;2.97;;
6282;SDS011;3174;53.486;9.568;2023-02-01T11:36:21;15.43;;;4.10;;
6282;SDS011;3174;53.486;9.568;2023-02-01T11:38:54;13.20;;;4.37;;
6282;SDS011;3174;53.486;9.568;2023-02-01T11:41:40;16.30;;;5.70;;
6282;SDS011;3174;53.486;9.568;2023-02-01T11:44:20;13.07;;;4.57;;
6282;SDS011;3174;53.486;9.568;2023-02-01T11:46:49;14.10;;;3.30;;
6282;SDS011;3174;53.486;9.568;2023-02-01T11:49:21;4.80;;;1.90;;
6282;SDS011;3174;53.486;9.568;2023-02-01T11:52:03;7.33;;;3.10;;
6282;SDS011;3174;53.486;9.568;2023-02-01T11:54:42;8.53;;;2.17;;
6282;SDS011;3174;53.486;9.568;2023-02-01T11:57:26;5.30;;;2.47;;
6282;SDS011;3174;53.486;9.568;2023-02-01T12:03:01;4.30;;;1.50;;
6282;SDS011;3174;53.486;9.568;2023-02-01T12:05:41;2.93;;;1.30;;
6282;SDS011;3174;53.486;9.568;2023-02-01T12:08:25;3.40;;;0.83;;
6282;SDS011;3174;53.486;9.568;2023-02-01T12:11:04;4.70;;;1.10;;
6282;SDS011;3174;53.486;9.568;2023-02-01T12:13:47;2.67;;;1.10;;
6282;SDS011;3174;53.486;9.568;2023-02-01T12:16:23;0.80;;;0.60;;
6282;SDS011;3174;53.486;9.568;2023-02-01T12:22:06;0.83;;;0.63;;
6282;SDS011;3174;53.486;9.568;2023-02-01T12:24:51;2.03;;;0.83;;
6282;SDS011;3174;53.486;9.568;2023-02-01T12:27:45;1.40;;;0.80;;
6282;SDS011;3174;53.486;9.568;2023-02-01T12:33:35;2.37;;;0.90;;
6282;SDS011;3174;53.486;9.568;2023-02-01T12:36:11;2.43;;;1.00;;
6282;SDS011;3174;53.486;9.568;2023-02-01T12:38:46;2.33;;;0.90;;
6282;SDS011;3174;53.486;9.568;2023-02-01T12:41:24;1.10;;;0.70;;
6282;SDS011;3174;53.486;9.568;2023-02-01T12:44:03;4.40;;;1.00;;
6282;SDS011;3174;53.486;9.568;2023-02-01T12:46:33;4.10;;;2.37;;
6282;SDS011;3174;53.486;9.568;2023-02-01T12:49:05;2.57;;;1.30;;
6282;SDS011;3174;53.486;9.568;2023-02-01T12:51:38;1.73;;;1.10;;
6282;SDS011;3174;53.486;9.568;2023-02-01T12:54:10;4.10;;;1.10;;
6282;SDS011;3174;53.486;9.568;2023-02-01T12:56:42;1.20;;;0.60;;
6282;SDS011;3174;53.486;9.568;2023-02-01T12:59:14;0.73;;;0.67;;
6282;SDS011;3174;53.486;9.568;2023-02-01T13:01:49;1.07;;;0.60;;
6282;SDS011;3174;53.486;9.568;2023-02-01T13:04:25;0.97;;;0.40;;
6282;SDS011;3174;53.486;9.568;2023-02-01T13:06:57;0.30;;;0.30;;
6282;SDS011;3174;53.486;9.568;2023-02-01T13:09:30;0.50;;;0.40;;
6282;SDS011;3174;53.486;9.568;2023-02-01T13:12:06;0.40;;;0.40;;
6282;SDS011;3174;53.486;9.568;2023-02-01T13:14:39;0.50;;;0.50;;
6282;SDS011;3174;53.486;9.568;2023-02-01T13:17:14;0.80;;;0.70;;
6282;SDS011;3174;53.486;9.568;2023-02-01T13:19:45;0.70;;;0.63;;
6282;SDS011;3174;53.486;9.568;2023-02-01T13:22:21;2.37;;;0.50;;
6282;SDS011;3174;53.486;9.568;2023-02-01T13:24:52;0.43;;;0.43;;
6282;SDS011;3174;53.486;9.568;2023-02-01T13:27:24;2.10;;;0.57;;
6282;SDS011;3174;53.486;9.568;2023-02-01T13:29:57;1.30;;;0.40;;
6282;SDS011;3174;53.486;9.568;2023-02-01T13:32:35;0.70;;;0.40;;
6282;SDS011;3174;53.486;9.568;2023-02-01T13:35:43;1.07;;;0.50;;
6282;SDS011;3174;53.486;9.568;2023-02-01T13:41:51;0.60;;;0.47;;
6282;SDS011;3174;53.486;9.568;2023-02-01T13:44:24;0.73;;;0.40;;
6282;SDS011;3174;53.486;9.568;2023-02-01T13:46:56;1.10;;;0.50;;
6282;SDS011;3174;53.486;9.568;2023-02-01T13:49:26;1.07;;;0.60;;
6282;SDS011;3174;53.486;9.568;2023-02-01T13:51:55;3.60;;;1.13;;
6282;SDS011;3174;53.486;9.568;2023-02-01T13:54:26;1.53;;;1.00;;
6282;SDS011;3174;53.486;9.568;2023-02-01T13:56:55;1.20;;;1.10;;
6282;SDS011;3174;53.486;9.568;2023-02-01T14:06:01;2.83;;;0.83;;
6282;SDS011;3174;53.486;9.568;2023-02-01T14:08:37;1.90;;;1.43;;
6282;SDS011;3174;53.486;9.568;2023-02-01T14:11:30;7.93;;;1.80;;
6282;SDS011;3174;53.486;9.568;2023-02-01T14:23:21;10.50;;;1.90;;
6282;SDS011;3174;53.486;9.568;2023-02-01T14:28:50;8.80;;;2.00;;
6282;SDS011;3174;53.486;9.568;2023-02-01T14:31:31;3.60;;;2.10;;
6282;SDS011;3174;53.486;9.568;2023-02-01T14:34:17;2.27;;;1.40;;
6282;SDS011;3174;53.486;9.568;2023-02-01T14:36:48;5.40;;;1.70;;
6282;SDS011;3174;53.486;9.568;2023-02-01T14:39:23;4.47;;;1.10;;
6282;SDS011;3174;53.486;9.568;2023-02-01T14:41:57;5.87;;;1.70;;
6282;SDS011;3174;53.486;9.568;2023-02-01T14:44:32;8.20;;;1.83;;
6282;SDS011;3174;53.486;9.568;2023-02-01T14:47:06;4.67;;;2.00;;
6282;SDS011;3174;53.486;9.568;2023-02-01T14:49:42;6.07;;;3.10;;
6282;SDS011;3174;53.486;9.568;2023-02-01T14:52:17;7.00;;;4.00;;
6282;SDS011;3174;53.486;9.568;2023-02-01T14:54:50;6.93;;;1.67;;
6282;SDS011;3174;53.486;9.568;2023-02-01T14:57:24;5.43;;;1.53;;
6282;SDS011;3174;53.486;9.568;2023-02-01T14:59:54;5.40;;;1.47;;
6282;SDS011;3174;53.486;9.568;2023-02-01T15:02:27;2.53;;;1.10;;
6282;SDS011;3174;53.486;9.568;2023-02-01T15:04:59;5.97;;;1.07;;
6282;SDS011;3174;53.486;9.568;2023-02-01T15:07:27;8.17;;;1.20;;
6282;SDS011;3174;53.486;9.568;2023-02-01T15:09:56;2.53;;;1.53;;
6282;SDS011;3174;53.486;9.568;2023-02-01T15:12:26;4.17;;;1.70;;
6282;SDS011;3174;53.486;9.568;2023-02-01T15:15:10;7.30;;;2.13;;
6282;SDS011;3174;53.486;9.568;2023-02-01T15:17:40;9.07;;;1.73;;
6282;SDS011;3174;53.486;9.568;2023-02-01T15:20:14;7.50;;;3.00;;
6282;SDS011;3174;53.486;9.568;2023-02-01T15:22:51;3.97;;;1.80;;
6282;SDS011;3174;53.486;9.568;2023-02-01T15:25:21;10.90;;;2.13;;
6282;SDS011;3174;53.486;9.568;2023-02-01T15:27:51;6.87;;;2.80;;
6282;SDS011;3174;53.486;9.568;2023-02-01T15:30:20;7.63;;;2.80;;
6282;SDS011;3174;53.486;9.568;2023-02-01T15:32:50;9.17;;;2.40;;
6282;SDS011;3174;53.486;9.568;2023-02-01T15:35:39;9.70;;;2.03;;
6282;SDS011;3174;53.486;9.568;2023-02-01T15:38:19;9.20;;;2.67;;
6282;SDS011;3174;53.486;9.568;2023-02-01T15:41:03;17.33;;;4.23;;
6282;SDS011;3174;53.486;9.568;2023-02-01T15:43:33;12.00;;;2.60;;
6282;SDS011;3174;53.486;9.568;2023-02-01T15:46:03;12.67;;;3.20;;
6282;SDS011;3174;53.486;9.568;2023-02-01T15:48:36;8.70;;;3.00;;
6282;SDS011;3174;53.486;9.568;2023-02-01T15:51:12;10.37;;;2.43;;
6282;SDS011;3174;53.486;9.568;2023-02-01T15:53:44;11.47;;;2.47;;
6282;SDS011;3174;53.486;9.568;2023-02-01T15:56:14;14.57;;;4.50;;
6282;SDS011;3174;53.486;9.568;2023-02-01T15:58:42;14.77;;;2.40;;
6282;SDS011;3174;53.486;9.568;2023-02-01T16:01:13;9.53;;;2.80;;
6282;SDS011;3174;53.486;9.568;2023-02-01T16:03:42;13.87;;;3.33;;
6282;SDS011;3174;53.486;9.568;2023-02-01T16:06:27;15.33;;;3.63;;
6282;SDS011;3174;53.486;9.568;2023-02-01T16:09:00;15.83;;;2.70;;
6282;SDS011;3174;53.486;9.568;2023-02-01T16:11:29;11.33;;;2.37;;
6282;SDS011;3174;53.486;9.568;2023-02-01T16:13:58;12.50;;;3.23;;
6282;SDS011;3174;53.486;9.568;2023-02-01T16:16:28;8.17;;;2.90;;
6282;SDS011;3174;53.486;9.568;2023-02-01T16:18:56;10.20;;;2.50;;
6282;SDS011;3174;53.486;9.568;2023-02-01T16:21:24;12.13;;;2.40;;
6282;SDS011;3174;53.486;9.568;2023-02-01T16:23:54;15.80;;;4.63;;
6282;SDS011;3174;53.486;9.568;2023-02-01T16:26:22;11.83;;;3.03;;
6282;SDS011;3174;53.486;9.568;2023-02-01T16:28:50;18.97;;;3.20;;